sensor_id;sensor_type;location;lat;lon;timestamp;temperature;humidity
43087;DHT22;28708;52.224;6.924;2023-05-02T00:01:11;11.30;99.90
43087;DHT22;28708;52.224;6.924;2023-05-02T00:03:36;11.50;99.90
43087;DHT22;28708;52.224;6.924;2023-05-02T00:06:02;11.50;99.90
43087;DHT22;28708;52.224;6.924;2023-05-02T00:08:27;11.60;99.90
43087;DHT22;28708;52.224;6.924;2023-05-02T00:10:53;11.50;99.90
43087;DHT22;28708;52.224;6.924;2023-05-02T00:13:19;11.50;99.90
43087;DHT22;28708;52.224;6.924;2023-05-02T00:15:45;11.50;99.90
43087;DHT22;28708;52.224;6.924;2023-05-02T00:18:10;11.50;99.90
43087;DHT22;28708;52.224;6.924;2023-05-02T00:20:39;11.50;99.90
43087;DHT22;28708;52.224;6.924;2023-05-02T00:23:05;11.40;99.90
43087;DHT22;28708;52.224;6.924;2023-05-02T00:25:30;11.40;99.90
43087;DHT22;28708;52.224;6.924;2023-05-02T00:27:56;11.50;99.90
43087;DHT22;28708;52.224;6.924;2023-05-02T00:30:22;11.50;99.90
43087;DHT22;28708;52.224;6.924;2023-05-02T00:32:48;11.50;99.90
43087;DHT22;28708;52.224;6.924;2023-05-02T00:35:13;11.50;99.90
43087;DHT22;28708;52.224;6.924;2023-05-02T00:37:39;11.50;99.90
43087;DHT22;28708;52.224;6.924;2023-05-02T00:40:06;11.30;99.90
43087;DHT22;28708;52.224;6.924;2023-05-02T00:42:32;11.30;99.90
43087;DHT22;28708;52.224;6.924;2023-05-02T00:45:01;11.40;99.90
43087;DHT22;28708;52.224;6.924;2023-05-02T00:47:28;11.40;99.90
43087;DHT22;28708;52.224;6.924;2023-05-02T00:49:53;11.40;99.90
43087;DHT22;28708;52.224;6.924;2023-05-02T00:52:19;11.40;99.90
43087;DHT22;28708;52.224;6.924;2023-05-02T00:54:46;11.40;99.90
43087;DHT22;28708;52.224;6.924;2023-05-02T00:57:12;11.50;99.90
43087;DHT22;28708;52.224;6.924;2023-05-02T00:59:38;11.50;99.90
43087;DHT22;28708;52.224;6.924;2023-05-02T01:02:21;11.50;99.90
43087;DHT22;28708;52.224;6.924;2023-05-02T01:07:40;11.50;99.90
43087;DHT22;28708;52.224;6.924;2023-05-02T01:10:29;11.50;99.90
43087;DHT22;28708;52.224;6.924;2023-05-02T01:13:08;11.40;99.90
43087;DHT22;28708;52.224;6.924;2023-05-02T01:15:38;11.30;99.90
43087;DHT22;28708;52.224;6.924;2023-05-02T01:18:05;11.30;99.90
43087;DHT22;28708;52.224;6.924;2023-05-02T01:20:36;11.50;99.90
43087;DHT22;28708;52.224;6.924;2023-05-02T01:23:09;11.50;99.90
43087;DHT22;28708;52.224;6.924;2023-05-02T01:28:57;11.60;99.90
43087;DHT22;28708;52.224;6.924;2023-05-02T01:31:30;11.50;99.90
43087;DHT22;28708;52.224;6.924;2023-05-02T01:33:58;11.60;99.90
43087;DHT22;28708;52.224;6.924;2023-05-02T01:36:27;11.50;99.90
43087;DHT22;28708;52.224;6.924;2023-05-02T01:38:55;11.70;99.90
43087;DHT22;28708;52.224;6.924;2023-05-02T01:41:25;11.50;99.90
43087;DHT22;28708;52.224;6.924;2023-05-02T01:43:56;11.40;99.90
43087;DHT22;28708;52.224;6.924;2023-05-02T01:46:26;11.50;99.90
43087;DHT22;28708;52.224;6.924;2023-05-02T01:48:54;11.50;99.90
43087;DHT22;28708;52.224;6.924;2023-05-02T01:51:25;11.50;99.90
43087;DHT22;28708;52.224;6.924;2023-05-02T01:53:55;11.50;99.90
43087;DHT22;28708;52.224;6.924;2023-05-02T01:56:24;11.60;99.90
43087;DHT22;28708;52.224;6.924;2023-05-02T01:58:52;11.60;99.90
43087;DHT22;28708;52.224;6.924;2023-05-02T02:01:18;11.60;99.90
43087;DHT22;28708;52.224;6.924;2023-05-02T02:03:46;11.60;99.90
43087;DHT22;28708;52.224;6.924;2023-05-02T02:06:12;11.50;99.90
43087;DHT22;28708;52.224;6.924;2023-05-02T02:08:38;11.50;99.90
43087;DHT22;28708;52.224;6.924;2023-05-02T02:11:10;11.50;99.90
43087;DHT22;28708;52.224;6.924;2023-05-02T02:13:40;11.40;99.90
43087;DHT22;28708;52.224;6.924;2023-05-02T02:16:11;11.40;99.90
43087;DHT22;28708;52.224;6.924;2023-05-02T02:18:38;11.40;99.90
43087;DHT22;28708;52.224;6.924;2023-05-02T02:21:08;11.50;99.90
43087;DHT22;28708;52.224;6.924;2023-05-02T02:23:35;11.50;99.90
43087;DHT22;28708;52.224;6.924;2023-05-02T02:26:03;11.40;99.90
43087;DHT22;28708;52.224;6.924;2023-05-02T02:28:29;11.50;99.90
43087;DHT22;28708;52.224;6.924;2023-05-02T02:30:56;11.60;99.90
43087;DHT22;28708;52.224;6.924;2023-05-02T02:33:24;11.60;99.90
43087;DHT22;28708;52.224;6.924;2023-05-02T02:36:07;11.60;99.90
43087;DHT22;28708;52.224;6.924;2023-05-02T02:38:45;11.60;99.90
43087;DHT22;28708;52.224;6.924;2023-05-02T02:41:17;11.60;99.90
43087;DHT22;28708;52.224;6.924;2023-05-02T02:43:57;11.50;99.90
43087;DHT22;28708;52.224;6.924;2023-05-02T02:46:45;11.40;99.90
43087;DHT22;28708;52.224;6.924;2023-05-02T02:49:14;11.30;99.90
43087;DHT22;28708;52.224;6.924;2023-05-02T02:54:40;11.20;99.90
43087;DHT22;28708;52.224;6.924;2023-05-02T02:57:23;11.10;99.90
43087;DHT22;28708;52.224;6.924;2023-05-02T02:59:57;11.10;99.90
43087;DHT22;28708;52.224;6.924;2023-05-02T03:02:28;11.00;99.90
43087;DHT22;28708;52.224;6.924;2023-05-02T03:04:56;11.00;99.90
43087;DHT22;28708;52.224;6.924;2023-05-02T03:07:22;11.00;99.90
43087;DHT22;28708;52.224;6.924;2023-05-02T03:09:48;10.90;99.90
43087;DHT22;28708;52.224;6.924;2023-05-02T03:12:19;10.90;99.90
43087;DHT22;28708;52.224;6.924;2023-05-02T03:14:47;10.80;99.90
43087;DHT22;28708;52.224;6.924;2023-05-02T03:17:12;10.80;99.90
43087;DHT22;28708;52.224;6.924;2023-05-02T03:19:39;10.80;99.90
43087;DHT22;28708;52.224;6.924;2023-05-02T03:22:05;10.70;99.90
43087;DHT22;28708;52.224;6.924;2023-05-02T03:24:32;10.70;99.90
43087;DHT22;28708;52.224;6.924;2023-05-02T03:26:58;10.80;99.90
43087;DHT22;28708;52.224;6.924;2023-05-02T03:29:29;10.80;99.90
43087;DHT22;28708;52.224;6.924;2023-05-02T03:31:55;10.80;99.90
43087;DHT22;28708;52.224;6.924;2023-05-02T03:34:22;10.80;99.90
43087;DHT22;28708;52.224;6.924;2023-05-02T03:36:49;10.80;99.90
43087;DHT22;28708;52.224;6.924;2023-05-02T03:39:15;10.90;99.90
43087;DHT22;28708;52.224;6.924;2023-05-02T03:41:42;10.80;99.90
43087;DHT22;28708;52.224;6.924;2023-05-02T03:44:11;10.80;99.90
43087;DHT22;28708;52.224;6.924;2023-05-02T03:46:37;10.80;99.90
43087;DHT22;28708;52.224;6.924;2023-05-02T03:49:06;10.80;99.90
43087;DHT22;28708;52.224;6.924;2023-05-02T03:51:33;10.80;99.90
43087;DHT22;28708;52.224;6.924;2023-05-02T03:54:00;10.80;99.90
43087;DHT22;28708;52.224;6.924;2023-05-02T03:56:27;10.80;99.90
43087;DHT22;28708;52.224;6.924;2023-05-02T03:59:04;10.70;99.90
43087;DHT22;28708;52.224;6.924;2023-05-02T04:01:31;10.70;99.90
43087;DHT22;28708;52.224;6.924;2023-05-02T04:03:58;10.80;99.90
43087;DHT22;28708;52.224;6.924;2023-05-02T04:06:26;10.80;99.90
43087;DHT22;28708;52.224;6.924;2023-05-02T04:09:03;10.80;99.90
43087;DHT22;28708;52.224;6.924;2023-05-02T04:11:36;10.90;99.90
43087;DHT22;28708;52.224;6.924;2023-05-02T04:14:04;10.90;99.90
43087;DHT22;28708;52.224;6.924;2023-05-02T04:16:30;10.80;99.90
43087;DHT22;28708;52.224;6.924;2023-05-02T04:18:56;10.70;99.90
43087;DHT22;28708;52.224;6.924;2023-05-02T04:21:22;10.70;99.90
43087;DHT22;28708;52.224;6.924;2023-05-02T04:23:48;10.70;99.90
43087;DHT22;28708;52.224;6.924;2023-05-02T04:26:14;10.70;99.90
43087;DHT22;28708;52.224;6.924;2023-05-02T04:28:52;10.70;99.90
43087;DHT22;28708;52.224;6.924;2023-05-02T04:31:18;10.70;99.90
43087;DHT22;28708;52.224;6.924;2023-05-02T04:33:44;10.70;99.90
43087;DHT22;28708;52.224;6.924;2023-05-02T04:36:14;10.70;99.90
43087;DHT22;28708;52.224;6.924;2023-05-02T04:38:43;10.70;99.90
43087;DHT22;28708;52.224;6.924;2023-05-02T04:41:09;10.70;99.90
43087;DHT22;28708;52.224;6.924;2023-05-02T04:43:40;10.70;99.90
43087;DHT22;28708;52.224;6.924;2023-05-02T04:46:06;10.70;99.90
43087;DHT22;28708;52.224;6.924;2023-05-02T04:48:36;10.60;99.90
43087;DHT22;28708;52.224;6.924;2023-05-02T04:51:09;10.50;99.90
43087;DHT22;28708;52.224;6.924;2023-05-02T04:53:38;10.40;99.90
43087;DHT22;28708;52.224;6.924;2023-05-02T04:56:04;10.20;99.90
43087;DHT22;28708;52.224;6.924;2023-05-02T04:58:33;10.00;99.90
43087;DHT22;28708;52.224;6.924;2023-05-02T05:01:02;9.80;99.90
43087;DHT22;28708;52.224;6.924;2023-05-02T05:03:28;9.80;99.90
43087;DHT22;28708;52.224;6.924;2023-05-02T05:05:58;9.60;99.90
43087;DHT22;28708;52.224;6.924;2023-05-02T05:08:24;9.50;99.90
43087;DHT22;28708;52.224;6.924;2023-05-02T05:10:50;9.40;99.90
43087;DHT22;28708;52.224;6.924;2023-05-02T05:13:17;9.40;99.90
43087;DHT22;28708;52.224;6.924;2023-05-02T05:15:46;9.50;99.90
43087;DHT22;28708;52.224;6.924;2023-05-02T05:18:13;9.50;99.90
43087;DHT22;28708;52.224;6.924;2023-05-02T05:20:39;9.50;99.90
43087;DHT22;28708;52.224;6.924;2023-05-02T05:23:04;9.30;99.90
43087;DHT22;28708;52.224;6.924;2023-05-02T05:25:30;9.30;99.90
43087;DHT22;28708;52.224;6.924;2023-05-02T05:28:01;9.30;99.90
43087;DHT22;28708;52.224;6.924;2023-05-02T05:30:28;9.30;99.90
43087;DHT22;28708;52.224;6.924;2023-05-02T05:32:56;9.30;99.90
43087;DHT22;28708;52.224;6.924;2023-05-02T05:35:23;9.20;99.90
43087;DHT22;28708;52.224;6.924;2023-05-02T05:37:50;9.10;99.90
43087;DHT22;28708;52.224;6.924;2023-05-02T05:40:16;9.00;99.90
43087;DHT22;28708;52.224;6.924;2023-05-02T05:42:46;8.90;99.90
43087;DHT22;28708;52.224;6.924;2023-05-02T05:45:19;8.80;99.90
43087;DHT22;28708;52.224;6.924;2023-05-02T05:47:45;8.70;99.90
43087;DHT22;28708;52.224;6.924;2023-05-02T05:50:11;8.70;99.90
43087;DHT22;28708;52.224;6.924;2023-05-02T05:52:37;8.60;99.90
43087;DHT22;28708;52.224;6.924;2023-05-02T05:55:04;8.50;99.90
43087;DHT22;28708;52.224;6.924;2023-05-02T05:57:29;8.50;99.90
43087;DHT22;28708;52.224;6.924;2023-05-02T05:59:56;8.60;99.90
43087;DHT22;28708;52.224;6.924;2023-05-02T06:02:22;8.70;99.90
43087;DHT22;28708;52.224;6.924;2023-05-02T06:04:48;8.70;99.90
43087;DHT22;28708;52.224;6.924;2023-05-02T06:07:16;8.80;99.90
43087;DHT22;28708;52.224;6.924;2023-05-02T06:09:41;8.90;99.90
43087;DHT22;28708;52.224;6.924;2023-05-02T06:12:07;8.80;99.90
43087;DHT22;28708;52.224;6.924;2023-05-02T06:14:33;8.80;99.90
43087;DHT22;28708;52.224;6.924;2023-05-02T06:16:59;8.80;99.90
43087;DHT22;28708;52.224;6.924;2023-05-02T06:19:26;8.80;99.90
43087;DHT22;28708;52.224;6.924;2023-05-02T06:21:51;8.80;99.90
43087;DHT22;28708;52.224;6.924;2023-05-02T06:24:17;8.90;99.90
43087;DHT22;28708;52.224;6.924;2023-05-02T06:26:43;8.70;99.90
43087;DHT22;28708;52.224;6.924;2023-05-02T06:29:08;8.60;99.90
43087;DHT22;28708;52.224;6.924;2023-05-02T06:31:34;8.70;99.90
43087;DHT22;28708;52.224;6.924;2023-05-02T06:33:59;8.70;99.90
43087;DHT22;28708;52.224;6.924;2023-05-02T06:36:25;8.80;99.90
43087;DHT22;28708;52.224;6.924;2023-05-02T06:38:51;8.90;99.90
43087;DHT22;28708;52.224;6.924;2023-05-02T06:41:17;8.90;99.90
43087;DHT22;28708;52.224;6.924;2023-05-02T06:43:45;8.80;99.90
43087;DHT22;28708;52.224;6.924;2023-05-02T06:46:10;8.60;99.90
43087;DHT22;28708;52.224;6.924;2023-05-02T06:48:36;8.60;99.90
43087;DHT22;28708;52.224;6.924;2023-05-02T06:51:02;8.70;99.90
43087;DHT22;28708;52.224;6.924;2023-05-02T06:53:29;8.90;99.90
43087;DHT22;28708;52.224;6.924;2023-05-02T06:55:55;9.20;99.90
43087;DHT22;28708;52.224;6.924;2023-05-02T06:58:21;9.30;99.90
43087;DHT22;28708;52.224;6.924;2023-05-02T07:00:47;9.50;99.90
43087;DHT22;28708;52.224;6.924;2023-05-02T07:03:13;9.50;99.90
43087;DHT22;28708;52.224;6.924;2023-05-02T07:05:39;9.50;99.90
43087;DHT22;28708;52.224;6.924;2023-05-02T07:08:05;9.50;99.90
43087;DHT22;28708;52.224;6.924;2023-05-02T07:10:31;9.50;99.90
43087;DHT22;28708;52.224;6.924;2023-05-02T07:12:57;9.60;99.90
43087;DHT22;28708;52.224;6.924;2023-05-02T07:15:23;9.60;99.90
43087;DHT22;28708;52.224;6.924;2023-05-02T07:17:48;9.60;99.90
43087;DHT22;28708;52.224;6.924;2023-05-02T07:20:14;9.60;99.90
43087;DHT22;28708;52.224;6.924;2023-05-02T07:22:41;9.60;99.90
43087;DHT22;28708;52.224;6.924;2023-05-02T07:25:07;9.60;99.90
43087;DHT22;28708;52.224;6.924;2023-05-02T07:27:34;9.60;99.90
43087;DHT22;28708;52.224;6.924;2023-05-02T07:29:59;9.70;99.90
43087;DHT22;28708;52.224;6.924;2023-05-02T07:32:26;9.90;99.90
43087;DHT22;28708;52.224;6.924;2023-05-02T07:34:52;10.10;99.90
43087;DHT22;28708;52.224;6.924;2023-05-02T07:37:19;10.20;99.90
43087;DHT22;28708;52.224;6.924;2023-05-02T07:39:45;10.10;99.90
43087;DHT22;28708;52.224;6.924;2023-05-02T07:42:11;10.20;99.90
43087;DHT22;28708;52.224;6.924;2023-05-02T07:44:36;10.40;99.90
43087;DHT22;28708;52.224;6.924;2023-05-02T07:47:02;10.60;99.90
43087;DHT22;28708;52.224;6.924;2023-05-02T07:49:28;10.70;99.90
43087;DHT22;28708;52.224;6.924;2023-05-02T07:51:55;10.60;99.90
43087;DHT22;28708;52.224;6.924;2023-05-02T07:54:21;10.70;99.90
43087;DHT22;28708;52.224;6.924;2023-05-02T07:56:47;10.70;99.90
43087;DHT22;28708;52.224;6.924;2023-05-02T07:59:15;10.90;99.90
43087;DHT22;28708;52.224;6.924;2023-05-02T08:01:42;11.00;99.90
43087;DHT22;28708;52.224;6.924;2023-05-02T08:04:08;11.20;99.90
43087;DHT22;28708;52.224;6.924;2023-05-02T08:06:36;11.40;99.90
43087;DHT22;28708;52.224;6.924;2023-05-02T08:09:01;11.40;99.90
43087;DHT22;28708;52.224;6.924;2023-05-02T08:11:27;11.60;99.90
43087;DHT22;28708;52.224;6.924;2023-05-02T08:13:53;11.50;99.90
43087;DHT22;28708;52.224;6.924;2023-05-02T08:16:19;11.60;99.90
43087;DHT22;28708;52.224;6.924;2023-05-02T08:18:45;12.00;99.90
43087;DHT22;28708;52.224;6.924;2023-05-02T08:21:11;11.90;99.90
43087;DHT22;28708;52.224;6.924;2023-05-02T08:23:37;11.90;99.90
43087;DHT22;28708;52.224;6.924;2023-05-02T08:26:03;11.80;99.90
43087;DHT22;28708;52.224;6.924;2023-05-02T08:28:29;11.50;99.90
43087;DHT22;28708;52.224;6.924;2023-05-02T08:30:55;11.50;99.90
43087;DHT22;28708;52.224;6.924;2023-05-02T08:33:21;11.70;99.90
43087;DHT22;28708;52.224;6.924;2023-05-02T08:35:47;11.40;99.90
43087;DHT22;28708;52.224;6.924;2023-05-02T08:38:13;11.40;99.90
43087;DHT22;28708;52.224;6.924;2023-05-02T08:40:39;11.60;99.90
43087;DHT22;28708;52.224;6.924;2023-05-02T08:43:05;11.60;99.90
43087;DHT22;28708;52.224;6.924;2023-05-02T08:45:36;11.70;99.90
43087;DHT22;28708;52.224;6.924;2023-05-02T08:48:08;11.70;99.90
43087;DHT22;28708;52.224;6.924;2023-05-02T08:50:41;11.70;99.90
43087;DHT22;28708;52.224;6.924;2023-05-02T08:53:09;11.70;99.90
43087;DHT22;28708;52.224;6.924;2023-05-02T08:55:37;11.80;99.90
43087;DHT22;28708;52.224;6.924;2023-05-02T08:58:10;12.20;99.90
43087;DHT22;28708;52.224;6.924;2023-05-02T09:00:40;13.20;99.90
43087;DHT22;28708;52.224;6.924;2023-05-02T09:05:52;13.10;99.90
43087;DHT22;28708;52.224;6.924;2023-05-02T09:08:22;12.30;99.90
43087;DHT22;28708;52.224;6.924;2023-05-02T09:10:49;12.50;99.90
43087;DHT22;28708;52.224;6.924;2023-05-02T09:13:31;12.90;99.90
43087;DHT22;28708;52.224;6.924;2023-05-02T09:16:00;12.60;99.90
43087;DHT22;28708;52.224;6.924;2023-05-02T09:18:31;12.30;99.90
43087;DHT22;28708;52.224;6.924;2023-05-02T09:20:58;12.10;99.90
43087;DHT22;28708;52.224;6.924;2023-05-02T09:23:32;13.00;99.90
43087;DHT22;28708;52.224;6.924;2023-05-02T09:25:59;14.00;99.90
43087;DHT22;28708;52.224;6.924;2023-05-02T09:28:45;12.90;99.90
43087;DHT22;28708;52.224;6.924;2023-05-02T09:31:14;12.80;99.90
43087;DHT22;28708;52.224;6.924;2023-05-02T09:33:40;13.00;99.90
43087;DHT22;28708;52.224;6.924;2023-05-02T09:36:07;13.00;99.90
43087;DHT22;28708;52.224;6.924;2023-05-02T09:38:34;12.70;99.90
43087;DHT22;28708;52.224;6.924;2023-05-02T09:41:00;12.60;99.90
43087;DHT22;28708;52.224;6.924;2023-05-02T09:43:28;12.70;99.90
43087;DHT22;28708;52.224;6.924;2023-05-02T09:46:02;13.00;99.90
43087;DHT22;28708;52.224;6.924;2023-05-02T09:48:29;12.60;99.90
43087;DHT22;28708;52.224;6.924;2023-05-02T09:50:56;12.50;99.90
43087;DHT22;28708;52.224;6.924;2023-05-02T09:53:24;12.60;99.90
43087;DHT22;28708;52.224;6.924;2023-05-02T09:56:03;12.40;99.90
43087;DHT22;28708;52.224;6.924;2023-05-02T09:58:29;12.40;99.90
43087;DHT22;28708;52.224;6.924;2023-05-02T10:00:56;12.10;99.90
43087;DHT22;28708;52.224;6.924;2023-05-02T10:03:23;12.40;99.90
43087;DHT22;28708;52.224;6.924;2023-05-02T10:05:49;12.50;99.90
43087;DHT22;28708;52.224;6.924;2023-05-02T10:08:17;12.50;99.90
43087;DHT22;28708;52.224;6.924;2023-05-02T10:10:51;12.60;99.90
43087;DHT22;28708;52.224;6.924;2023-05-02T10:13:19;12.60;99.90
43087;DHT22;28708;52.224;6.924;2023-05-02T10:15:48;12.60;99.90
43087;DHT22;28708;52.224;6.924;2023-05-02T10:18:20;12.30;99.90
43087;DHT22;28708;52.224;6.924;2023-05-02T10:20:57;12.60;99.90
43087;DHT22;28708;52.224;6.924;2023-05-02T10:23:28;12.60;99.90
43087;DHT22;28708;52.224;6.924;2023-05-02T10:25:56;12.50;99.90
43087;DHT22;28708;52.224;6.924;2023-05-02T10:28:22;12.50;99.90
43087;DHT22;28708;52.224;6.924;2023-05-02T10:30:49;12.40;99.90
43087;DHT22;28708;52.224;6.924;2023-05-02T10:33:16;12.20;99.90
43087;DHT22;28708;52.224;6.924;2023-05-02T10:35:44;12.00;99.90
43087;DHT22;28708;52.224;6.924;2023-05-02T10:38:14;11.70;99.90
43087;DHT22;28708;52.224;6.924;2023-05-02T10:40:41;11.90;99.90
43087;DHT22;28708;52.224;6.924;2023-05-02T10:43:07;12.00;99.90
43087;DHT22;28708;52.224;6.924;2023-05-02T10:45:37;12.30;99.90
43087;DHT22;28708;52.224;6.924;2023-05-02T10:48:19;12.10;99.90
43087;DHT22;28708;52.224;6.924;2023-05-02T10:50:48;12.10;99.90
43087;DHT22;28708;52.224;6.924;2023-05-02T10:53:33;11.80;99.90
43087;DHT22;28708;52.224;6.924;2023-05-02T10:58:37;12.20;99.90
43087;DHT22;28708;52.224;6.924;2023-05-02T11:03:58;12.50;99.90
43087;DHT22;28708;52.224;6.924;2023-05-02T11:06:26;12.70;99.90
43087;DHT22;28708;52.224;6.924;2023-05-02T11:08:52;13.20;99.90
43087;DHT22;28708;52.224;6.924;2023-05-02T11:11:37;13.60;99.90
43087;DHT22;28708;52.224;6.924;2023-05-02T11:14:03;13.80;99.30
43087;DHT22;28708;52.224;6.924;2023-05-02T11:20:17;13.80;98.70
43087;DHT22;28708;52.224;6.924;2023-05-02T11:24:52;13.40;99.90
43087;DHT22;28708;52.224;6.924;2023-05-02T11:30:01;13.00;99.90
43087;DHT22;28708;52.224;6.924;2023-05-02T11:35:21;13.50;99.30
43087;DHT22;28708;52.224;6.924;2023-05-02T11:38:03;13.30;98.80
43087;DHT22;28708;52.224;6.924;2023-05-02T11:40:30;13.20;99.30
43087;DHT22;28708;52.224;6.924;2023-05-02T11:42:57;13.30;99.10
43087;DHT22;28708;52.224;6.924;2023-05-02T11:45:43;13.20;98.50
43087;DHT22;28708;52.224;6.924;2023-05-02T11:48:11;13.40;99.20
43087;DHT22;28708;52.224;6.924;2023-05-02T11:50:51;12.60;98.60
43087;DHT22;28708;52.224;6.924;2023-05-02T11:53:24;13.00;98.70
43087;DHT22;28708;52.224;6.924;2023-05-02T11:55:53;12.90;99.80
43087;DHT22;28708;52.224;6.924;2023-05-02T11:58:21;13.20;98.90
43087;DHT22;28708;52.224;6.924;2023-05-02T12:00:48;13.10;98.00
43087;DHT22;28708;52.224;6.924;2023-05-02T12:03:31;12.90;99.40
43087;DHT22;28708;52.224;6.924;2023-05-02T12:06:08;13.10;99.10
43087;DHT22;28708;52.224;6.924;2023-05-02T12:08:37;13.50;98.10
43087;DHT22;28708;52.224;6.924;2023-05-02T12:11:03;13.40;98.00
43087;DHT22;28708;52.224;6.924;2023-05-02T12:13:29;13.30;97.40
43087;DHT22;28708;52.224;6.924;2023-05-02T12:15:55;13.80;97.20
43087;DHT22;28708;52.224;6.924;2023-05-02T12:18:23;13.60;96.50
43087;DHT22;28708;52.224;6.924;2023-05-02T12:20:54;14.00;96.70
43087;DHT22;28708;52.224;6.924;2023-05-02T12:23:21;14.00;96.50
43087;DHT22;28708;52.224;6.924;2023-05-02T12:25:48;13.80;96.50
43087;DHT22;28708;52.224;6.924;2023-05-02T12:28:16;13.40;96.60
43087;DHT22;28708;52.224;6.924;2023-05-02T12:30:41;13.00;97.80
43087;DHT22;28708;52.224;6.924;2023-05-02T12:33:07;13.20;97.90
43087;DHT22;28708;52.224;6.924;2023-05-02T12:35:34;13.20;96.50
43087;DHT22;28708;52.224;6.924;2023-05-02T12:38:15;12.90;96.10
43087;DHT22;28708;52.224;6.924;2023-05-02T12:40:52;13.10;98.10
43087;DHT22;28708;52.224;6.924;2023-05-02T12:43:19;13.70;96.30
43087;DHT22;28708;52.224;6.924;2023-05-02T12:45:46;13.90;95.90
43087;DHT22;28708;52.224;6.924;2023-05-02T12:48:19;13.90;95.60
43087;DHT22;28708;52.224;6.924;2023-05-02T12:50:45;14.30;95.30
43087;DHT22;28708;52.224;6.924;2023-05-02T12:53:11;14.20;95.00
43087;DHT22;28708;52.224;6.924;2023-05-02T12:55:37;14.20;94.10
43087;DHT22;28708;52.224;6.924;2023-05-02T12:58:05;14.30;94.50
43087;DHT22;28708;52.224;6.924;2023-05-02T13:00:32;14.30;94.90
43087;DHT22;28708;52.224;6.924;2023-05-02T13:02:59;14.00;94.20
43087;DHT22;28708;52.224;6.924;2023-05-02T13:05:24;13.70;94.30
43087;DHT22;28708;52.224;6.924;2023-05-02T13:07:50;13.30;94.80
43087;DHT22;28708;52.224;6.924;2023-05-02T13:10:17;13.00;96.40
43087;DHT22;28708;52.224;6.924;2023-05-02T13:12:44;13.30;95.10
43087;DHT22;28708;52.224;6.924;2023-05-02T13:15:11;13.50;95.30
43087;DHT22;28708;52.224;6.924;2023-05-02T13:17:37;13.00;95.10
43087;DHT22;28708;52.224;6.924;2023-05-02T13:20:03;12.90;94.90
43087;DHT22;28708;52.224;6.924;2023-05-02T13:22:28;13.20;95.20
43087;DHT22;28708;52.224;6.924;2023-05-02T13:24:55;13.40;95.30
43087;DHT22;28708;52.224;6.924;2023-05-02T13:27:24;13.50;96.00
43087;DHT22;28708;52.224;6.924;2023-05-02T13:29:50;13.40;95.60
43087;DHT22;28708;52.224;6.924;2023-05-02T13:32:16;13.10;96.70
43087;DHT22;28708;52.224;6.924;2023-05-02T13:34:42;13.20;95.80
43087;DHT22;28708;52.224;6.924;2023-05-02T13:37:08;13.60;96.10
43087;DHT22;28708;52.224;6.924;2023-05-02T13:39:34;14.20;94.60
43087;DHT22;28708;52.224;6.924;2023-05-02T13:42:00;13.90;94.00
43087;DHT22;28708;52.224;6.924;2023-05-02T13:44:29;14.20;94.70
43087;DHT22;28708;52.224;6.924;2023-05-02T13:46:56;14.40;93.40
43087;DHT22;28708;52.224;6.924;2023-05-02T13:49:21;14.60;93.50
43087;DHT22;28708;52.224;6.924;2023-05-02T13:51:47;14.90;93.00
43087;DHT22;28708;52.224;6.924;2023-05-02T13:54:13;14.60;92.90
43087;DHT22;28708;52.224;6.924;2023-05-02T13:56:39;14.80;92.90
43087;DHT22;28708;52.224;6.924;2023-05-02T13:59:05;14.70;93.10
43087;DHT22;28708;52.224;6.924;2023-05-02T14:01:31;15.30;93.30
43087;DHT22;28708;52.224;6.924;2023-05-02T14:03:57;15.70;93.00
43087;DHT22;28708;52.224;6.924;2023-05-02T14:06:23;15.90;91.90
43087;DHT22;28708;52.224;6.924;2023-05-02T14:08:48;15.80;91.40
43087;DHT22;28708;52.224;6.924;2023-05-02T14:11:17;15.40;91.70
43087;DHT22;28708;52.224;6.924;2023-05-02T14:13:43;15.20;90.90
43087;DHT22;28708;52.224;6.924;2023-05-02T14:16:09;14.40;92.70
43087;DHT22;28708;52.224;6.924;2023-05-02T14:18:35;14.10;93.70
43087;DHT22;28708;52.224;6.924;2023-05-02T14:21:01;14.10;92.10
43087;DHT22;28708;52.224;6.924;2023-05-02T14:23:27;14.60;93.40
43087;DHT22;28708;52.224;6.924;2023-05-02T14:25:54;15.00;92.30
43087;DHT22;28708;52.224;6.924;2023-05-02T14:28:20;15.40;91.80
43087;DHT22;28708;52.224;6.924;2023-05-02T14:30:49;15.20;91.50
43087;DHT22;28708;52.224;6.924;2023-05-02T14:33:15;15.00;91.40
43087;DHT22;28708;52.224;6.924;2023-05-02T14:35:41;14.30;90.50
43087;DHT22;28708;52.224;6.924;2023-05-02T14:38:06;14.00;91.70
43087;DHT22;28708;52.224;6.924;2023-05-02T14:40:32;13.90;91.70
43087;DHT22;28708;52.224;6.924;2023-05-02T14:42:58;13.60;91.70
43087;DHT22;28708;52.224;6.924;2023-05-02T14:45:24;13.50;91.80
43087;DHT22;28708;52.224;6.924;2023-05-02T14:47:49;13.20;92.00
43087;DHT22;28708;52.224;6.924;2023-05-02T14:50:16;13.00;93.10
43087;DHT22;28708;52.224;6.924;2023-05-02T14:52:42;13.00;93.10
43087;DHT22;28708;52.224;6.924;2023-05-02T14:55:10;13.10;93.80
43087;DHT22;28708;52.224;6.924;2023-05-02T14:57:36;13.10;93.80
43087;DHT22;28708;52.224;6.924;2023-05-02T15:00:03;13.50;94.00
43087;DHT22;28708;52.224;6.924;2023-05-02T15:02:29;13.80;93.70
43087;DHT22;28708;52.224;6.924;2023-05-02T15:04:55;14.00;93.30
43087;DHT22;28708;52.224;6.924;2023-05-02T15:07:20;13.90;93.00
43087;DHT22;28708;52.224;6.924;2023-05-02T15:09:46;14.00;92.20
43087;DHT22;28708;52.224;6.924;2023-05-02T15:12:12;14.10;92.40
43087;DHT22;28708;52.224;6.924;2023-05-02T15:14:37;13.90;92.20
43087;DHT22;28708;52.224;6.924;2023-05-02T15:17:03;13.70;92.40
43087;DHT22;28708;52.224;6.924;2023-05-02T15:19:29;13.60;93.80
43087;DHT22;28708;52.224;6.924;2023-05-02T15:21:55;13.20;92.70
43087;DHT22;28708;52.224;6.924;2023-05-02T15:24:22;13.10;93.20
43087;DHT22;28708;52.224;6.924;2023-05-02T15:26:51;13.00;93.40
43087;DHT22;28708;52.224;6.924;2023-05-02T15:29:17;13.00;93.40
43087;DHT22;28708;52.224;6.924;2023-05-02T15:31:43;12.80;92.50
43087;DHT22;28708;52.224;6.924;2023-05-02T15:34:08;12.80;93.00
43087;DHT22;28708;52.224;6.924;2023-05-02T15:36:34;12.80;93.30
43087;DHT22;28708;52.224;6.924;2023-05-02T15:39:03;13.10;93.30
43087;DHT22;28708;52.224;6.924;2023-05-02T15:41:29;13.40;94.10
43087;DHT22;28708;52.224;6.924;2023-05-02T15:43:56;13.50;92.30
43087;DHT22;28708;52.224;6.924;2023-05-02T15:46:22;13.40;92.70
43087;DHT22;28708;52.224;6.924;2023-05-02T15:48:47;13.60;93.00
43087;DHT22;28708;52.224;6.924;2023-05-02T15:51:13;13.80;93.60
43087;DHT22;28708;52.224;6.924;2023-05-02T15:53:39;13.60;93.00
43087;DHT22;28708;52.224;6.924;2023-05-02T15:56:11;13.50;93.90
43087;DHT22;28708;52.224;6.924;2023-05-02T15:58:37;13.50;94.60
43087;DHT22;28708;52.224;6.924;2023-05-02T16:01:03;13.50;94.60
43087;DHT22;28708;52.224;6.924;2023-05-02T16:03:29;13.60;94.40
43087;DHT22;28708;52.224;6.924;2023-05-02T16:05:56;13.40;94.30